createdAt,value
2022-09-10T00:00:39.777Z,1.0
2022-09-10T00:01:38.904Z,1.7
2022-09-10T00:02:39.464Z,1.5
2022-09-10T00:03:37.731Z,1.6
2022-09-10T00:04:37.693Z,1.2
2022-09-10T00:06:38.938Z,1.5
2022-09-10T00:07:37.889Z,1.2
2022-09-10T00:08:39.532Z,1.1
2022-09-10T00:09:38.506Z,1.2
2022-09-10T00:10:42.469Z,1.2
2022-09-10T00:11:40.856Z,1.1
2022-09-10T00:12:37.761Z,1.2
2022-09-10T00:13:39.415Z,1.2
2022-09-10T00:14:37.850Z,1.4
2022-09-10T00:15:41.851Z,1.1
2022-09-10T00:16:37.806Z,1.3
2022-09-10T00:17:39.064Z,1.3
2022-09-10T00:18:39.423Z,1.4
2022-09-10T00:19:38.704Z,1.3
2022-09-10T00:20:44.459Z,1.3
2022-09-10T00:21:38.045Z,1.2
2022-09-10T00:22:37.806Z,1.3
2022-09-10T00:23:37.773Z,1.8
2022-09-10T00:24:38.862Z,1.2
2022-09-10T00:25:39.163Z,1.1
2022-09-10T00:26:39.867Z,1.1
2022-09-10T00:27:37.718Z,1.5
2022-09-10T00:28:37.913Z,1.5
2022-09-10T00:29:38.336Z,1.5
2022-09-10T00:31:38.387Z,1.4
2022-09-10T00:32:38.601Z,1.1
2022-09-10T00:33:38.178Z,1.3
2022-09-10T00:34:37.672Z,1.1
2022-09-10T00:35:40.490Z,1.1
2022-09-10T00:36:40.944Z,1.3
2022-09-10T00:37:37.876Z,1.6
2022-09-10T00:38:37.895Z,1.4
2022-09-10T00:39:37.699Z,1.1
2022-09-10T00:40:38.318Z,1.6
2022-09-10T00:41:40.608Z,1.2
2022-09-10T00:42:37.651Z,1.3
2022-09-10T00:43:49.939Z,1.6
2022-09-10T00:44:46.372Z,1.6
2022-09-10T00:45:37.833Z,1.0
2022-09-10T00:46:43.646Z,1.2
2022-09-10T00:47:39.718Z,1.3
2022-09-10T00:48:38.253Z,1.4
2022-09-10T00:49:42.337Z,1.4
2022-09-10T00:50:42.006Z,1.4
2022-09-10T00:51:38.177Z,1.4
2022-09-10T00:52:39.916Z,1.1
2022-09-10T00:53:37.728Z,1.6
2022-09-10T00:54:40.645Z,1.4
2022-09-10T00:55:41.532Z,1.3
2022-09-10T00:56:38.944Z,1.9
2022-09-10T00:57:38.736Z,1.2
2022-09-10T00:58:38.162Z,1.1
2022-09-10T00:59:37.746Z,1.3
2022-09-10T01:00:38.469Z,1.4
2022-09-10T01:01:39.294Z,1.1
2022-09-10T01:02:37.810Z,1.5
2022-09-10T01:03:38.005Z,1.3
2022-09-10T01:04:38.322Z,1.2
2022-09-10T01:05:38.760Z,1.2
2022-09-10T01:06:39.771Z,1.2
2022-09-10T01:07:38.020Z,1.3
2022-09-10T01:08:37.915Z,1.1
2022-09-10T01:09:38.832Z,1.2
2022-09-10T01:10:54.275Z,1.2
2022-09-10T01:11:52.952Z,1.0
2022-09-10T01:12:55.825Z,1.4
2022-09-10T01:13:55.276Z,1.0
2022-09-10T01:14:55.745Z,1.3
2022-09-10T01:15:53.189Z,1.1
2022-09-10T01:16:51.662Z,1.0
2022-09-10T01:18:45.195Z,1.2
2022-09-10T01:19:46.839Z,1.5
2022-09-10T01:20:44.746Z,1.6
2022-09-10T01:21:52.076Z,1.6
2022-09-10T01:22:49.373Z,1.6
2022-09-10T01:23:57.625Z,1.2
2022-09-10T01:24:51.343Z,0.9
2022-09-10T01:25:54.267Z,1.4
2022-09-10T01:26:55.202Z,1.4
2022-09-10T01:27:50.309Z,1.4
2022-09-10T01:28:45.019Z,1.1
2022-09-10T01:29:49.496Z,1.1
2022-09-10T01:30:43.651Z,1.1
2022-09-10T01:31:41.286Z,1.1
2022-09-10T01:32:41.556Z,1.2
2022-09-10T01:33:46.129Z,1.5
2022-09-10T01:34:46.422Z,1.3
2022-09-10T01:35:43.318Z,1.4
2022-09-10T01:36:41.950Z,1.6
2022-09-10T01:37:40.842Z,1.6
2022-09-10T01:38:42.111Z,1.5
2022-09-10T01:39:39.778Z,1.5
2022-09-10T01:40:38.593Z,1.2
2022-09-10T01:41:38.131Z,1.1
2022-09-10T01:42:40.065Z,1.3
2022-09-10T01:43:37.984Z,1.2
2022-09-10T01:44:42.511Z,1.2
2022-09-10T01:45:44.867Z,1.2
2022-09-10T01:46:50.164Z,1.5
2022-09-10T01:47:51.397Z,1.3
2022-09-10T01:48:56.103Z,1.2
2022-09-10T01:49:47.076Z,1.2
2022-09-10T01:50:53.105Z,1.4
2022-09-10T01:51:53.658Z,1.2
2022-09-10T01:52:53.531Z,1.2
2022-09-10T01:53:51.500Z,1.7
2022-09-10T01:54:52.147Z,2.2
2022-09-10T01:55:51.599Z,2.7
2022-09-10T01:56:54.746Z,1.1
2022-09-10T01:57:53.204Z,1.1
2022-09-10T01:58:40.832Z,1.4
2022-09-10T01:59:47.176Z,1.5
2022-09-10T02:00:42.252Z,1.6
2022-09-10T02:01:45.800Z,1.3
2022-09-10T02:03:39.824Z,1.2
2022-09-10T02:04:38.739Z,1.1
2022-09-10T02:06:40.957Z,3.3
2022-09-10T02:07:39.659Z,11.5
2022-09-10T02:08:40.662Z,3.4
2022-09-10T02:09:37.918Z,1.7
2022-09-10T02:10:55.777Z,1.9
2022-09-10T02:11:48.316Z,1.9
2022-09-10T02:12:40.168Z,2.5
2022-09-10T02:13:38.412Z,2.0
2022-09-10T02:14:37.625Z,1.8
2022-09-10T02:15:38.177Z,1.8
2022-09-10T02:16:41.447Z,1.9
2022-09-10T02:17:39.950Z,1.5
2022-09-10T02:18:40.129Z,1.9
2022-09-10T02:19:38.542Z,1.7
2022-09-10T02:20:39.027Z,1.6
2022-09-10T02:21:38.685Z,1.5
2022-09-10T02:22:39.413Z,1.4
2022-09-10T02:23:44.460Z,1.6
2022-09-10T02:24:37.650Z,1.6
2022-09-10T02:25:37.908Z,1.6
2022-09-10T02:26:39.884Z,1.4
2022-09-10T02:27:38.497Z,1.4
2022-09-10T02:29:38.776Z,1.5
2022-09-10T02:30:38.955Z,1.5
2022-09-10T02:32:37.614Z,1.5
2022-09-10T02:33:38.454Z,3.1
2022-09-10T02:34:41.869Z,4.2
2022-09-10T02:35:37.566Z,3.2
2022-09-10T02:36:41.753Z,2.6
2022-09-10T02:38:38.665Z,1.0
2022-09-10T02:39:37.670Z,3.7
2022-09-10T02:40:38.021Z,3.6
2022-09-10T02:41:40.999Z,1.7
2022-09-10T02:42:38.538Z,0.8
2022-09-10T02:43:38.438Z,1.3
2022-09-10T02:44:37.777Z,1.1
2022-09-10T02:45:40.260Z,1.0
2022-09-10T02:46:38.407Z,1.3
2022-09-10T02:47:37.603Z,1.2
2022-09-10T02:49:37.626Z,1.0
2022-09-10T02:50:37.912Z,1.0
2022-09-10T02:51:38.322Z,0.9
2022-09-10T02:52:37.823Z,0.7
2022-09-10T02:53:38.032Z,0.7
2022-09-10T02:54:37.576Z,0.9
2022-09-10T02:55:37.587Z,1.1
2022-09-10T02:57:37.645Z,1.4
2022-09-10T02:59:37.767Z,0.9
2022-09-10T03:01:38.823Z,0.8
2022-09-10T03:03:38.315Z,0.5
2022-09-10T03:04:37.636Z,0.5
2022-09-10T03:05:38.789Z,0.7
2022-09-10T03:06:38.337Z,0.8
2022-09-10T03:07:37.575Z,0.8
2022-09-10T03:08:38.005Z,1.0
2022-09-10T03:09:37.546Z,2.0
2022-09-10T03:10:38.639Z,0.7
2022-09-10T03:11:40.833Z,0.6
2022-09-10T03:12:38.268Z,0.6
2022-09-10T03:13:37.871Z,1.4
2022-09-10T03:14:37.591Z,2.1
2022-09-10T03:15:38.405Z,1.9
2022-09-10T03:17:37.520Z,0.7
2022-09-10T03:18:37.772Z,0.8
2022-09-10T03:19:37.839Z,0.6
2022-09-10T03:20:37.592Z,0.7
2022-09-10T03:21:37.729Z,2.0
2022-09-10T03:22:38.354Z,2.0
2022-09-10T03:23:38.269Z,1.2
2022-09-10T03:24:37.587Z,0.8
2022-09-10T03:25:37.560Z,1.3
2022-09-10T03:26:37.737Z,0.6
2022-09-10T03:27:38.488Z,0.8
2022-09-10T03:28:38.814Z,0.6
2022-09-10T03:30:38.405Z,0.4
2022-09-10T03:31:37.926Z,0.3
2022-09-10T03:32:38.345Z,0.3
2022-09-10T03:33:38.500Z,0.6
2022-09-10T03:34:37.531Z,0.3
2022-09-10T03:35:37.524Z,0.3
2022-09-10T03:36:37.566Z,0.3
2022-09-10T03:39:37.680Z,0.2
2022-09-10T03:40:37.677Z,0.4
2022-09-10T03:41:37.634Z,0.4
2022-09-10T03:42:38.877Z,0.4
2022-09-10T03:43:37.656Z,0.3
2022-09-10T03:44:37.913Z,0.3
2022-09-10T03:45:37.603Z,0.4
2022-09-10T03:46:38.415Z,0.3
2022-09-10T03:47:37.822Z,0.4
2022-09-10T03:48:39.847Z,0.5
2022-09-10T03:49:37.920Z,0.6
2022-09-10T03:50:39.418Z,1.4
2022-09-10T03:51:37.518Z,1.5
2022-09-10T03:52:37.590Z,1.3
2022-09-10T03:53:38.779Z,0.6
2022-09-10T03:54:37.569Z,0.6
2022-09-10T03:55:37.833Z,1.3
2022-09-10T03:56:37.623Z,0.8
2022-09-10T03:57:39.121Z,1.1
2022-09-10T03:58:37.926Z,1.2
2022-09-10T03:59:39.589Z,1.0
2022-09-10T04:00:37.594Z,1.1
2022-09-10T04:01:37.518Z,0.9
2022-09-10T04:02:37.691Z,1.1
2022-09-10T04:03:37.599Z,0.9
2022-09-10T04:04:39.714Z,0.8
2022-09-10T04:05:40.826Z,0.4
2022-09-10T04:06:41.852Z,0.6
2022-09-10T04:07:38.030Z,0.6
2022-09-10T04:08:39.943Z,0.7
2022-09-10T04:08:42.585Z,0.7
2022-09-10T04:09:37.638Z,0.5
2022-09-10T04:10:37.671Z,0.9
2022-09-10T04:11:37.603Z,1.0
2022-09-10T04:12:38.071Z,0.7
2022-09-10T04:13:37.555Z,0.6
2022-09-10T04:15:38.633Z,0.6
2022-09-10T04:17:37.511Z,0.7
2022-09-10T04:20:38.349Z,0.8
2022-09-10T04:21:37.569Z,0.7
2022-09-10T04:22:37.649Z,0.7
2022-09-10T04:23:38.071Z,0.7
2022-09-10T04:24:38.648Z,0.7
2022-09-10T04:25:32.235Z,0.7
2022-09-10T04:25:34.828Z,0.7
2022-09-10T04:25:36.440Z,0.7
2022-09-10T04:25:57.313Z,0.7
2022-09-10T04:25:59.849Z,0.7
2022-09-10T04:26:37.518Z,0.7
2022-09-10T04:28:38.586Z,0.9
2022-09-10T04:29:48.272Z,0.9
2022-09-10T04:30:38.367Z,1.1
2022-09-10T04:32:41.811Z,1.3
2022-09-10T04:33:37.819Z,1.9
2022-09-10T04:34:07.910Z,1.9
2022-09-10T04:34:10.681Z,2.7
2022-09-10T04:34:37.473Z,2.7
2022-09-10T04:35:33.805Z,3.6
2022-09-10T04:35:35.150Z,3.6
2022-09-10T04:35:36.514Z,3.6
2022-09-10T04:36:38.466Z,3.2
2022-09-10T04:37:43.931Z,2.0
2022-09-10T04:38:41.896Z,1.1
2022-09-10T04:39:37.903Z,0.9
2022-09-10T04:40:38.517Z,0.9
2022-09-10T04:41:37.567Z,1.0
2022-09-10T04:43:38.729Z,1.0
2022-09-10T04:44:37.570Z,1.1
2022-09-10T04:45:39.547Z,1.2
2022-09-10T04:46:37.603Z,1.1
2022-09-10T04:47:38.087Z,1.2
2022-09-10T04:48:37.530Z,1.6
2022-09-10T04:49:37.459Z,1.2
2022-09-10T04:50:54.020Z,1.3
2022-09-10T04:51:37.499Z,1.1
2022-09-10T04:53:37.497Z,0.9
2022-09-10T04:54:38.242Z,1.1
2022-09-10T04:55:40.065Z,1.3
2022-09-10T04:56:37.536Z,1.2
2022-09-10T04:56:51.964Z,1.2
2022-09-10T04:56:53.281Z,1.2
2022-09-10T04:57:42.408Z,1.3
2022-09-10T04:58:39.051Z,1.3
2022-09-10T05:00:00.255Z,1.2
2022-09-10T05:00:39.470Z,1.1
2022-09-10T05:01:37.648Z,1.6
2022-09-10T05:02:37.829Z,1.4
2022-09-10T05:03:37.521Z,1.4
2022-09-10T05:04:43.516Z,1.3
2022-09-10T05:04:45.136Z,1.3
2022-09-10T05:05:43.016Z,1.4
2022-09-10T05:06:37.562Z,1.6
2022-09-10T05:07:39.010Z,1.5
2022-09-10T05:09:37.483Z,1.2
2022-09-10T05:11:37.509Z,1.5
2022-09-10T05:12:39.141Z,1.1
2022-09-10T05:13:37.590Z,0.9
2022-09-10T05:14:38.662Z,1.1
2022-09-10T05:15:40.035Z,1.1
2022-09-10T05:16:38.874Z,1.2
2022-09-10T05:17:37.537Z,1.5
2022-09-10T05:18:37.571Z,1.5
2022-09-10T05:19:37.451Z,1.6
2022-09-10T05:22:40.658Z,1.0
2022-09-10T05:23:37.492Z,1.1
2022-09-10T05:24:37.748Z,1.3
2022-09-10T05:25:37.844Z,1.0
2022-09-10T05:26:37.507Z,1.2
2022-09-10T05:27:37.609Z,1.5
2022-09-10T05:28:37.818Z,1.5
2022-09-10T05:29:37.496Z,1.6
2022-09-10T05:30:37.494Z,1.9
2022-09-10T05:31:37.557Z,1.6
2022-09-10T05:32:40.238Z,2.5
2022-09-10T05:33:40.516Z,1.5
2022-09-10T05:34:39.621Z,1.8
2022-09-10T05:35:37.534Z,1.7
2022-09-10T05:36:37.528Z,2.5
2022-09-10T05:37:37.531Z,2.3
2022-09-10T05:38:40.002Z,2.0
2022-09-10T05:39:37.527Z,2.1
2022-09-10T05:40:37.627Z,1.9
2022-09-10T05:41:37.931Z,2.2
2022-09-10T05:42:37.794Z,1.9
2022-09-10T05:43:37.639Z,1.9
2022-09-10T05:44:37.450Z,2.0
2022-09-10T05:45:37.574Z,2.1
2022-09-10T05:46:38.175Z,1.6
2022-09-10T05:47:38.119Z,2.2
2022-09-10T05:48:41.379Z,2.2
2022-09-10T05:49:37.506Z,2.6
2022-09-10T05:50:38.635Z,2.1
2022-09-10T05:51:37.482Z,2.4
2022-09-10T05:52:37.985Z,3.3
2022-09-10T05:53:38.382Z,3.3
2022-09-10T05:54:37.626Z,1.8
2022-09-10T05:55:37.502Z,2.1
2022-09-10T05:56:37.440Z,2.3
2022-09-10T05:57:37.612Z,1.9
2022-09-10T05:58:37.620Z,1.9
2022-09-10T05:59:37.497Z,1.8
2022-09-10T06:00:37.664Z,1.9
2022-09-10T06:01:38.168Z,2.4
2022-09-10T06:02:38.128Z,1.9
2022-09-10T06:03:38.318Z,2.2
2022-09-10T06:04:37.424Z,2.0
2022-09-10T06:05:37.492Z,2.1
2022-09-10T06:06:37.471Z,1.9
2022-09-10T06:07:37.613Z,2.4
2022-09-10T06:08:37.619Z,2.1
2022-09-10T06:09:37.697Z,2.0
2022-09-10T06:10:37.489Z,1.9
2022-09-10T06:11:37.472Z,2.0
2022-09-10T06:12:38.324Z,1.6
2022-09-10T06:13:42.369Z,1.7
2022-09-10T06:14:37.576Z,2.0
2022-09-10T06:15:39.093Z,1.9
2022-09-10T06:16:37.480Z,1.7
2022-09-10T06:17:38.620Z,2.3
2022-09-10T06:18:37.626Z,1.9
2022-09-10T06:19:37.463Z,2.1
2022-09-10T06:20:37.773Z,2.1
2022-09-10T06:21:37.421Z,2.2
2022-09-10T06:22:37.429Z,2.4
2022-09-10T06:23:37.494Z,2.1
2022-09-10T06:24:37.893Z,1.9
2022-09-10T06:25:37.410Z,1.7
2022-09-10T06:26:37.445Z,1.5
2022-09-10T06:27:37.786Z,1.6
2022-09-10T06:28:39.016Z,1.2
2022-09-10T06:29:37.421Z,2.2
2022-09-10T06:30:37.525Z,1.6
2022-09-10T06:31:37.452Z,1.5
2022-09-10T06:32:39.318Z,1.6
2022-09-10T06:33:37.458Z,1.7
2022-09-10T06:34:37.435Z,1.8
2022-09-10T06:35:37.424Z,1.7
2022-09-10T06:36:37.504Z,1.5
2022-09-10T06:37:37.431Z,1.9
2022-09-10T06:38:37.521Z,2.1
2022-09-10T06:39:37.491Z,1.9
2022-09-10T06:40:38.245Z,1.5
2022-09-10T06:41:37.667Z,1.9
2022-09-10T06:42:38.202Z,1.7
2022-09-10T06:43:38.776Z,1.8
2022-09-10T06:44:37.411Z,1.7
2022-09-10T06:45:41.044Z,2.0
2022-09-10T06:48:32.723Z,2.1
2022-09-10T06:48:45.643Z,2.1
2022-09-10T06:49:37.453Z,2.3
2022-09-10T06:50:37.778Z,2.6
2022-09-10T06:51:38.586Z,2.7
2022-09-10T06:52:37.863Z,2.7
2022-09-10T06:53:38.567Z,2.7
2022-09-10T06:54:37.467Z,2.6
2022-09-10T06:55:37.387Z,2.5
2022-09-10T06:56:37.470Z,2.4
2022-09-10T06:57:37.431Z,2.2
2022-09-10T06:58:37.685Z,2.8
2022-09-10T06:59:37.490Z,2.2
2022-09-10T07:00:39.426Z,2.3
2022-09-10T07:01:38.388Z,2.1
2022-09-10T07:02:37.401Z,2.4
2022-09-10T07:03:38.348Z,2.3
2022-09-10T07:04:37.414Z,2.1
2022-09-10T07:05:37.423Z,2.6
2022-09-10T07:06:39.078Z,2.9
2022-09-10T07:07:37.432Z,3.2
2022-09-10T07:08:39.938Z,3.2
2022-09-10T07:09:37.410Z,3.5
2022-09-10T07:10:37.556Z,4.0
2022-09-10T07:11:41.379Z,3.2
2022-09-10T07:12:37.482Z,3.1
2022-09-10T07:13:38.000Z,3.7
2022-09-10T07:14:37.411Z,2.5
2022-09-10T07:15:37.572Z,3.0
2022-09-10T07:16:41.801Z,2.9
2022-09-10T07:17:37.404Z,3.1
2022-09-10T07:18:37.731Z,3.2
2022-09-10T07:19:38.585Z,2.6
2022-09-10T07:20:37.806Z,2.6
2022-09-10T07:21:38.080Z,2.8
2022-09-10T07:23:39.273Z,2.5
2022-09-10T07:24:37.594Z,2.2
2022-09-10T07:26:37.476Z,2.4
2022-09-10T07:28:38.688Z,2.4
2022-09-10T07:30:37.413Z,2.8
2022-09-10T07:31:38.474Z,2.6
2022-09-10T07:32:37.383Z,2.6
2022-09-10T07:33:37.380Z,2.5
2022-09-10T07:34:37.863Z,2.2
2022-09-10T07:35:38.052Z,2.3
2022-09-10T07:36:37.455Z,2.2
2022-09-10T07:37:39.398Z,2.3
2022-09-10T07:38:38.346Z,1.9
2022-09-10T07:39:38.213Z,2.0
2022-09-10T07:40:37.363Z,2.1
2022-09-10T07:41:37.721Z,2.0
2022-09-10T07:42:38.255Z,2.0
2022-09-10T07:43:39.264Z,2.4
2022-09-10T07:44:37.356Z,2.3
2022-09-10T07:45:37.523Z,2.4
2022-09-10T07:46:38.191Z,2.8
2022-09-10T07:47:37.376Z,2.8
2022-09-10T07:49:37.439Z,2.9
2022-09-10T07:50:37.360Z,3.4
2022-09-10T07:51:37.383Z,3.3
2022-09-10T07:52:37.396Z,3.8
2022-09-10T07:53:37.374Z,3.7
2022-09-10T07:54:37.430Z,4.0
2022-09-10T07:55:37.627Z,4.2
2022-09-10T07:56:38.007Z,5.4
2022-09-10T07:57:39.926Z,5.8
2022-09-10T07:58:38.553Z,4.5
2022-09-10T07:59:37.362Z,4.7
2022-09-10T08:00:37.461Z,4.2
2022-09-10T08:02:37.431Z,2.8
2022-09-10T08:03:37.390Z,2.8
2022-09-10T08:04:37.682Z,2.7
2022-09-10T08:05:39.678Z,3.3
2022-09-10T08:06:37.373Z,2.3
2022-09-10T08:07:38.092Z,2.3
2022-09-10T08:08:40.058Z,2.3
2022-09-10T08:09:37.642Z,2.8
2022-09-10T08:10:37.349Z,3.0
2022-09-10T08:11:37.440Z,2.5
2022-09-10T08:12:37.986Z,2.3
2022-09-10T08:13:38.748Z,2.7
2022-09-10T08:15:41.702Z,2.1
2022-09-10T08:16:41.250Z,2.8
2022-09-10T08:18:37.641Z,2.5
2022-09-10T08:19:37.498Z,2.5
2022-09-10T08:20:38.851Z,2.4
2022-09-10T08:21:37.430Z,2.6
2022-09-10T08:22:37.527Z,2.7
2022-09-10T08:23:39.806Z,3.0
2022-09-10T08:24:37.377Z,3.3
2022-09-10T08:25:38.261Z,4.8
2022-09-10T08:26:37.344Z,3.8
2022-09-10T08:27:37.446Z,3.2
2022-09-10T08:28:38.262Z,3.0
2022-09-10T08:29:37.332Z,2.6
2022-09-10T08:30:37.454Z,2.8
2022-09-10T08:31:37.407Z,2.3
2022-09-10T08:32:37.315Z,2.8
2022-09-10T08:34:37.321Z,2.5
2022-09-10T08:35:38.000Z,3.0
2022-09-10T08:36:37.452Z,2.4
2022-09-10T08:37:38.222Z,2.2
2022-09-10T08:38:41.459Z,2.7
2022-09-10T08:39:37.399Z,2.5
2022-09-10T08:40:43.269Z,2.7
2022-09-10T08:41:44.054Z,2.7
2022-09-10T08:42:46.337Z,2.4
2022-09-10T08:43:49.261Z,2.3
2022-09-10T08:44:50.955Z,2.6
2022-09-10T08:45:58.711Z,3.1
2022-09-10T08:46:42.727Z,2.6
2022-09-10T08:47:46.936Z,2.8
2022-09-10T08:48:41.035Z,2.6
2022-09-10T08:49:40.006Z,3.2
2022-09-10T08:51:47.335Z,3.2
2022-09-10T08:52:42.434Z,3.2
2022-09-10T08:55:45.043Z,3.6
2022-09-10T08:56:37.388Z,3.7
2022-09-10T08:57:45.257Z,3.8
2022-09-10T08:59:44.861Z,3.1
2022-09-10T09:02:56.740Z,3.5
2022-09-10T09:04:41.628Z,3.4
2022-09-10T09:06:44.973Z,3.2
2022-09-10T09:07:39.512Z,3.3
2022-09-10T09:08:48.632Z,3.2
2022-09-10T09:09:37.319Z,3.2
2022-09-10T09:10:45.976Z,3.3
2022-09-10T09:11:51.699Z,3.5
2022-09-10T09:13:51.350Z,3.4
2022-09-10T09:15:41.749Z,2.8
2022-09-10T09:16:53.500Z,3.4
2022-09-10T09:18:49.007Z,3.3
2022-09-10T09:19:42.531Z,3.4
2022-09-10T09:20:50.801Z,3.4
2022-09-10T09:21:52.819Z,3.3
2022-09-10T09:22:42.010Z,4.1
2022-09-10T09:24:12.317Z,5.7
2022-09-10T09:24:53.899Z,3.8
2022-09-10T09:25:49.903Z,3.5
2022-09-10T09:26:38.204Z,3.5
2022-09-10T09:27:42.452Z,3.4
2022-09-10T09:28:49.942Z,3.1
2022-09-10T09:29:46.655Z,3.1
2022-09-10T09:30:49.506Z,3.2
2022-09-10T09:31:43.453Z,3.4
2022-09-10T09:32:42.764Z,3.0
2022-09-10T09:33:38.378Z,3.0
2022-09-10T09:34:44.109Z,3.6
2022-09-10T09:35:53.292Z,3.3
2022-09-10T09:37:38.917Z,2.8
2022-09-10T09:39:46.476Z,3.1
2022-09-10T09:40:46.911Z,3.5
2022-09-10T09:41:52.205Z,3.1
2022-09-10T09:42:50.939Z,3.4
2022-09-10T09:44:46.319Z,3.3
2022-09-10T09:45:39.717Z,3.3
2022-09-10T09:46:37.277Z,3.9
2022-09-10T09:47:37.433Z,3.7
2022-09-10T09:48:42.233Z,3.0
2022-09-10T09:49:37.326Z,4.4
2022-09-10T09:50:42.462Z,4.0
2022-09-10T09:51:37.317Z,3.3
2022-09-10T09:52:38.734Z,3.4
2022-09-10T09:53:37.234Z,3.0
2022-09-10T09:55:13.284Z,2.9
2022-09-10T09:55:42.358Z,2.9
2022-09-10T09:56:42.373Z,2.9
2022-09-10T09:57:37.248Z,3.1
2022-09-10T09:59:37.342Z,2.7
2022-09-10T10:02:38.867Z,2.6
2022-09-10T10:03:48.843Z,2.8
2022-09-10T10:04:42.024Z,2.8
2022-09-10T10:05:37.495Z,3.0
2022-09-10T10:06:47.263Z,2.7
2022-09-10T10:08:41.596Z,2.7
2022-09-10T10:15:42.324Z,2.9
2022-09-10T10:18:37.315Z,3.1
2022-09-10T10:19:40.182Z,2.9
2022-09-10T10:21:38.274Z,3.2
2022-09-10T10:23:38.967Z,4.4
2022-09-10T10:24:37.234Z,6.1
2022-09-10T10:25:41.418Z,7.1
2022-09-10T10:26:38.378Z,6.4
2022-09-10T10:27:42.933Z,5.7
2022-09-10T10:28:37.287Z,5.5
2022-09-10T10:29:38.070Z,5.6
2022-09-10T10:30:37.234Z,5.1
2022-09-10T10:31:41.972Z,5.2
2022-09-10T10:32:49.913Z,4.8
2022-09-10T10:33:39.558Z,4.8
2022-09-10T10:34:54.085Z,5.0
2022-09-10T10:35:53.444Z,4.9
2022-09-10T10:37:48.868Z,5.2
2022-09-10T10:38:40.692Z,5.2
2022-09-10T10:39:55.570Z,6.2
2022-09-10T10:40:43.613Z,6.2
2022-09-10T10:41:47.076Z,7.5
2022-09-10T10:42:44.601Z,8.0
2022-09-10T10:44:55.394Z,6.3
2022-09-10T10:45:42.703Z,6.3
2022-09-10T10:46:50.140Z,5.5
2022-09-10T10:48:51.661Z,5.2
2022-09-10T10:49:53.493Z,5.6
2022-09-10T10:50:43.910Z,5.6
2022-09-10T10:52:51.489Z,7.0
2022-09-10T10:54:54.207Z,7.5
2022-09-10T10:55:42.399Z,7.5
2022-09-10T10:57:44.020Z,6.8
2022-09-10T10:59:55.059Z,6.7
2022-09-10T11:01:42.889Z,6.4
2022-09-10T11:06:44.135Z,6.2
2022-09-10T11:08:42.010Z,7.0
2022-09-10T11:09:41.572Z,6.8
2022-09-10T11:10:42.497Z,7.1
2022-09-10T11:11:49.773Z,7.1
2022-09-10T11:12:47.600Z,7.0
2022-09-10T11:14:45.130Z,7.8
2022-09-10T11:15:46.927Z,8.3
2022-09-10T11:16:44.411Z,8.0
2022-09-10T11:17:46.647Z,8.4
2022-09-10T11:18:44.285Z,9.2
2022-09-10T11:19:56.396Z,8.0
2022-09-10T11:20:43.224Z,8.9
2022-09-10T11:21:44.864Z,8.9
2022-09-10T11:22:45.485Z,8.0
2022-09-10T11:24:42.505Z,7.1
2022-09-10T11:25:45.098Z,6.2
2022-09-10T11:26:51.094Z,6.3
2022-09-10T11:27:43.473Z,7.0
2022-09-10T11:28:44.126Z,7.1
2022-09-10T11:29:41.783Z,7.0
2022-09-10T11:30:41.835Z,6.1
2022-09-10T11:31:43.860Z,6.9
2022-09-10T11:32:43.127Z,5.7
2022-09-10T11:33:50.425Z,7.6
2022-09-10T11:34:43.657Z,7.0
2022-09-10T11:36:47.747Z,9.2
2022-09-10T11:37:51.242Z,8.7
2022-09-10T11:38:53.198Z,8.7
2022-09-10T11:39:42.439Z,8.7
2022-09-10T11:40:54.277Z,7.7
2022-09-10T11:41:42.761Z,6.7
2022-09-10T11:43:49.485Z,7.6
2022-09-10T11:45:47.504Z,6.9
2022-09-10T11:47:43.408Z,6.8
2022-09-10T11:48:46.008Z,5.8
2022-09-10T11:49:48.422Z,6.1
2022-09-10T11:50:45.899Z,5.7
2022-09-10T11:51:39.918Z,6.1
2022-09-10T11:52:37.930Z,6.1
2022-09-10T11:53:37.653Z,5.5
2022-09-10T11:54:38.647Z,5.1
2022-09-10T11:55:49.732Z,5.9
2022-09-10T11:56:53.294Z,6.0
2022-09-10T11:57:50.234Z,5.6
2022-09-10T11:58:49.173Z,5.7
2022-09-10T11:59:45.975Z,5.6
2022-09-10T12:00:49.397Z,5.8
2022-09-10T12:01:46.044Z,6.2
2022-09-10T12:02:55.447Z,6.1
2022-09-10T12:03:49.839Z,6.9
2022-09-10T12:04:55.304Z,6.4
2022-09-10T12:06:45.689Z,6.1
2022-09-10T12:07:45.302Z,5.6
2022-09-10T12:08:45.500Z,6.1
2022-09-10T12:09:53.395Z,6.3
2022-09-10T12:10:48.448Z,7.1
2022-09-10T12:11:51.771Z,6.7
2022-09-10T12:12:44.302Z,7.2
2022-09-10T12:13:40.499Z,7.7
2022-09-10T12:14:41.350Z,7.3
2022-09-10T12:15:38.842Z,7.3
2022-09-10T12:16:43.642Z,8.7
2022-09-10T12:18:43.237Z,10.2
2022-09-10T12:19:46.347Z,10.7
2022-09-10T12:20:48.885Z,10.5
2022-09-10T12:21:44.230Z,10.0
2022-09-10T12:23:40.937Z,10.6
2022-09-10T12:24:39.830Z,11.2
2022-09-10T12:25:37.213Z,10.7
2022-09-10T12:26:45.211Z,9.8
2022-09-10T12:27:56.511Z,10.4
2022-09-10T12:29:41.393Z,9.6
2022-09-10T12:31:56.233Z,9.7
2022-09-10T12:35:48.236Z,9.9
2022-09-10T12:36:46.941Z,10.0
2022-09-10T12:37:37.191Z,9.8
2022-09-10T12:38:55.344Z,9.5
2022-09-10T12:39:37.201Z,9.6
2022-09-10T12:40:49.745Z,9.1
2022-09-10T12:41:46.210Z,8.7
2022-09-10T12:42:37.244Z,8.0
2022-09-10T12:44:46.992Z,7.9
2022-09-10T12:46:44.799Z,8.1
2022-09-10T12:49:53.715Z,6.2
2022-09-10T12:50:46.186Z,6.7
2022-09-10T12:51:52.323Z,6.9
2022-09-10T12:52:43.899Z,5.5
2022-09-10T12:53:45.906Z,5.4
2022-09-10T12:54:55.922Z,5.3
2022-09-10T12:55:51.670Z,5.6
2022-09-10T12:56:55.887Z,5.1
2022-09-10T12:57:50.930Z,5.8
2022-09-10T12:59:45.847Z,7.3
2022-09-10T13:00:42.587Z,6.9
2022-09-10T13:01:44.308Z,9.4
2022-09-10T13:02:46.742Z,9.7
2022-09-10T13:03:37.888Z,7.6
2022-09-10T13:04:38.608Z,7.6
2022-09-10T13:05:45.705Z,6.5
2022-09-10T13:06:41.859Z,6.6
2022-09-10T13:07:41.904Z,7.7
2022-09-10T13:08:42.639Z,10.0
2022-09-10T13:09:40.450Z,9.9
2022-09-10T13:10:38.689Z,8.8
2022-09-10T13:11:37.445Z,8.8
2022-09-10T13:12:42.129Z,8.3
2022-09-10T13:13:39.064Z,9.1
2022-09-10T13:14:40.410Z,9.9
2022-09-10T13:15:39.980Z,10.0
2022-09-10T13:16:40.784Z,10.3
2022-09-10T13:18:38.276Z,7.5
2022-09-10T13:20:37.544Z,6.9
2022-09-10T13:21:45.905Z,7.7
2022-09-10T13:22:55.982Z,7.1
2022-09-10T13:23:48.057Z,6.3
2022-09-10T13:24:39.665Z,7.7
2022-09-10T13:25:42.926Z,7.0
2022-09-10T13:26:50.694Z,7.1
2022-09-10T13:27:40.069Z,7.6
2022-09-10T13:28:46.579Z,7.0
2022-09-10T13:29:43.568Z,7.4
2022-09-10T13:30:37.172Z,7.3
2022-09-10T13:31:43.374Z,7.5
2022-09-10T13:32:52.384Z,7.5
2022-09-10T13:33:53.092Z,6.5
2022-09-10T13:35:47.680Z,7.1
2022-09-10T13:39:56.197Z,5.7
2022-09-10T13:40:56.316Z,5.4
2022-09-10T13:42:53.652Z,6.3
2022-09-10T13:43:51.469Z,6.2
2022-09-10T13:44:55.549Z,6.4
2022-09-10T13:45:41.859Z,6.4
2022-09-10T13:46:43.754Z,6.0
2022-09-10T13:47:39.882Z,6.2
2022-09-10T13:48:51.702Z,5.5
2022-09-10T13:49:49.192Z,5.4
2022-09-10T13:50:49.358Z,4.9
2022-09-10T13:52:38.357Z,4.9
2022-09-10T13:53:43.127Z,5.2
2022-09-10T13:55:38.106Z,5.8
2022-09-10T13:57:42.175Z,6.4
2022-09-10T13:58:40.173Z,5.7
2022-09-10T13:59:38.422Z,5.4
2022-09-10T14:00:49.642Z,5.3
2022-09-10T14:01:54.339Z,5.6
2022-09-10T14:02:45.444Z,5.0
2022-09-10T14:03:42.013Z,5.3
2022-09-10T14:07:37.508Z,6.1
2022-09-10T14:08:42.508Z,5.4
2022-09-10T14:09:41.297Z,6.3
2022-09-10T14:10:53.172Z,5.8
2022-09-10T14:11:42.553Z,4.6
2022-09-10T14:12:37.443Z,5.3
2022-09-10T14:13:48.723Z,4.4
2022-09-10T14:14:42.362Z,5.3
2022-09-10T14:15:40.306Z,5.1
2022-09-10T14:16:42.640Z,4.9
2022-09-10T14:17:43.848Z,4.3
2022-09-10T14:18:43.502Z,4.8
2022-09-10T14:19:42.658Z,4.6
2022-09-10T14:20:37.724Z,4.0
2022-09-10T14:21:37.209Z,4.9
2022-09-10T14:22:39.109Z,3.6
2022-09-10T14:23:40.385Z,4.6
2022-09-10T14:24:49.010Z,4.0
2022-09-10T14:25:39.658Z,4.3
2022-09-10T14:26:37.056Z,4.2
2022-09-10T14:27:40.643Z,4.3
2022-09-10T14:28:46.482Z,4.0
2022-09-10T14:30:37.406Z,4.1
2022-09-10T14:31:38.451Z,4.0
2022-09-10T14:32:37.574Z,4.8
2022-09-10T14:33:39.797Z,4.9
2022-09-10T14:34:37.102Z,4.6
2022-09-10T14:35:39.427Z,4.3
2022-09-10T14:36:37.077Z,3.7
2022-09-10T14:37:38.502Z,4.2
2022-09-10T14:38:40.466Z,4.1
2022-09-10T14:39:44.170Z,4.1
2022-09-10T14:40:38.464Z,4.0
2022-09-10T14:41:37.455Z,4.3
2022-09-10T14:42:37.272Z,3.7
2022-09-10T14:43:40.770Z,4.6
2022-09-10T14:44:42.971Z,4.4
2022-09-10T14:45:46.371Z,4.4
2022-09-10T14:47:37.433Z,4.7
2022-09-10T14:48:38.676Z,4.5
2022-09-10T14:49:39.271Z,5.1
2022-09-10T14:50:37.223Z,4.1
2022-09-10T14:51:37.046Z,4.8
2022-09-10T14:53:37.867Z,5.0
2022-09-10T14:56:40.828Z,5.7
2022-09-10T14:57:39.204Z,6.0
2022-09-10T14:58:37.102Z,8.4
2022-09-10T14:59:39.026Z,8.3
2022-09-10T15:00:37.614Z,9.2
2022-09-10T15:01:37.182Z,8.5
2022-09-10T15:03:40.893Z,7.7
2022-09-10T15:04:38.990Z,6.1
2022-09-10T15:06:37.210Z,7.2
2022-09-10T15:08:37.315Z,6.0
2022-09-10T15:09:37.119Z,6.0
2022-09-10T15:10:37.085Z,5.6
2022-09-10T15:11:40.893Z,5.8
2022-09-10T15:12:39.928Z,6.2
2022-09-10T15:13:41.935Z,6.5
2022-09-10T15:14:37.952Z,6.4
2022-09-10T15:15:37.277Z,6.3
2022-09-10T15:16:38.068Z,7.0
2022-09-10T15:17:37.496Z,6.8
2022-09-10T15:18:37.100Z,6.1
2022-09-10T15:19:37.020Z,4.4
2022-09-10T15:20:37.035Z,4.6
2022-09-10T15:21:37.511Z,4.4
2022-09-10T15:23:38.959Z,5.3
2022-09-10T15:25:43.610Z,5.2
2022-09-10T15:26:38.389Z,5.0
2022-09-10T15:27:37.017Z,5.3
2022-09-10T15:28:37.004Z,5.0
2022-09-10T15:30:37.162Z,5.9
2022-09-10T15:31:37.922Z,5.4
2022-09-10T15:33:37.309Z,4.7
2022-09-10T15:35:39.903Z,4.4
2022-09-10T15:36:39.057Z,5.1
2022-09-10T15:37:37.878Z,5.4
2022-09-10T15:38:37.070Z,5.1